U.S. Securities & Exchange Commission
SEC Seal
Home | Search Home | Latest Filings | Previous Page
U.S. Securities and Exchange Commission


BLUM RICHARD C (0001145933)
Mailing Address
BLUM CAPITAL PARTNERS, LP
909 MONTGOMERY STREET, SUITE 400
SAN FRANCISCO CA 94133
Ownership Reports for Issuers: (Click on issuer name to see other owners for the issuer, or CIK for issuer filings.)

Issuer Filings Transaction Date Type of Owner
CB RICHARD ELLIS GROUP INC
Current Name:CBRE GROUP, INC.
0001138118 2016-05-11 director
GLENBOROUGH REALTY TRUST INC 0000929454 2006-11-28 director
URS CORP /NEW/ 0000102379 2005-09-30 director
ITT EDUCATIONAL SERVICES INC 0000922475 2005-05-25 10 percent owner
ERESEARCHTECHNOLOGY INC /DE/ 0001026650 2005-03-22 10 percent owner
PRGX GLOBAL, INC. 0001007330 2005-01-18 10 percent owner
KINETIC CONCEPTS INC /TX/
Current Name:KINETIC CONCEPTS INC
0000831967 2004-11-09 director
IMPATH INC 0001003114 2004-06-01 10 percent owner
PEGASUS SOLUTIONS INC 0001040261 2004-05-19 10 percent owner
PLAYTEX PRODUCTS INC 0000842699 2004-05-13 director
PERINI CORP
Current Name:TUTOR PERINI Corp
0000077543 2004-04-16 10 percent owner
NORTHWEST AIRLINES CORP 0001058033 2003-12-01 director


Items 1 - 80

The information presented below contains only portions of the information presented in the referenced filing or filings.
You should consult the original filing for complete information. Hyperlinks to the forms are provided for your convenience.

Acquistion or Disposition Transaction Date Deemed Execution Date Issuer Form Transaction Type Direct or Indirect Ownership Number of Securities Transacted Number of Securities Owned Line Number Issuer CIK Security Name
D 2016-05-11   CBRE GROUP, INC. 4 M-Exempt --D 1886.0000 1886.0000 4 0001138118 Stock Option (Right to Buy)
A 2016-05-11   CBRE GROUP, INC. 4 M-Exempt --D 3170.0000 31245.0000 2 0001138118 Class A Common Stock
D 2016-05-11   CBRE GROUP, INC. 4 M-Exempt --D 3170.0000 3170.0000 5 0001138118 Stock Option (Right to Buy)
A 2016-05-11   CBRE GROUP, INC. 4 M-Exempt --D 5924.0000 37169.0000 3 0001138118 Class A Common Stock
D 2016-05-11   CBRE GROUP, INC. 4 M-Exempt --D 5924.0000 5924.0000 6 0001138118 Stock Option (Right to Buy)
A 2016-05-11   CBRE GROUP, INC. 4 M-Exempt --D 1886.0000 28075.0000 1 0001138118 Class A Common Stock
D 2015-12-15   CBRE GROUP, INC. 4 S-Sale --D 36888.0000 26189.0000 1 0001138118 Class A Common Stock
A 2015-05-19   CBRE GROUP, INC. 4 M-Exempt --D 2272.0000 0.0000 3 0001138118 Stock Option (Right to Buy)
A 2015-05-19   CBRE GROUP, INC. 4 M-Exempt --D 2272.0000 63077.0000 2 0001138118 Class A Common Stock
A 2015-05-15   CBRE GROUP, INC. 4 A-Award --D 3889.0000 60805.0000 1 0001138118 Class A Common Stock
A 2014-05-16   CBRE GROUP, INC. 4 A-Award --D 5175.0000 56916.0000 1 0001138118 Class A Common Stock
A 2013-05-09   CBRE GROUP, INC. 4 A-Award --D 3085.0000 44535.0000 1 0001138118 Class A Common Stock
A 2012-05-08   CBRE GROUP, INC. 4 A-Award --D 4273.0000 40289.0000 1 0001138118 Class A Common Stock
A 2012-03-07   CBRE GROUP, INC. 4 M-Exempt --D 3918.0000 36016.0000 1 0001138118 Class A Common Stock
D 2012-03-07   CBRE GROUP, INC. 4 M-Exempt --D 3918.0000 0.0000 2 0001138118 Stock Option (Right to Buy)
A 2011-05-11   CB RICHARD ELLIS GROUP INC 4 A-Award --D 1886.0000 1886.0000 2 0001138118 Stock Option (Right to Buy)
A 2011-05-11   CB RICHARD ELLIS GROUP INC 4 A-Award --D 1697.0000 23251.0000 1 0001138118 Class A Common Stock
A 2010-06-02   CB RICHARD ELLIS GROUP INC 4 A-Award --D 2853.0000 21554.0000 1 0001138118 Class A Common Stock
A 2009-06-02   CB RICHARD ELLIS GROUP INC 4 A-Award --D 5330.0000 18701.0000 1 0001138118 Class A Common Stock
A 2009-06-02   CB RICHARD ELLIS GROUP INC 4 A-Award --D 3170.0000 3170.0000 2 0001138118 Stock Option (Right to Buy)
A 2009-06-02   CB RICHARD ELLIS GROUP INC 4 A-Award --D 5924.0000 5924.0000 2 0001138118 Stock Option (Right to Buy)
A 2008-06-02   CB RICHARD ELLIS GROUP INC 4 A-Award --D 2044.0000 13371.0000 1 0001138118 Class A Common Stock
A 2008-06-02   CB RICHARD ELLIS GROUP INC 4 A-Award --D 2272.0000 2272.0000 2 0001138118 Stock Option (Right to Buy)
D 2007-07-02   CB RICHARD ELLIS GROUP INC 4 M-Exempt --D 8847.0000 0.0000 2 0001138118 Stock Option (Right to Buy)
A 2007-07-02   CB RICHARD ELLIS GROUP INC 4 M-Exempt --D 8847.0000 20174.0000 1 0001138118 Common Stock
A 2007-06-01   CB RICHARD ELLIS GROUP INC 4 A-Award --D 1222.0000 11327.0000 1 0001138118 Class A Common Stock
A 2007-06-01   CB RICHARD ELLIS GROUP INC 4 A-Award --D 1359.0000 1359.0000 2 0001138118 Stock Option (Right to Buy)
D 2006-11-29   GLENBOROUGH REALTY TRUST INC 4 D-Return --D 44500.0000 0.0000 6 0000929454 Common Stock
A 2006-11-28   GLENBOROUGH REALTY TRUST INC 4 M-Exempt --D 10000.0000 45500.0000 3 0000929454 Common Stock
D 2006-11-28   GLENBOROUGH REALTY TRUST INC 4 M-Exempt --D 10000.0000 0.0000 9 0000929454 Stock Options (right to buy)
A 2006-11-28   GLENBOROUGH REALTY TRUST INC 4 M-Exempt --D 11000.0000 24500.0000 1 0000929454 Common Stock
A 2006-11-28   GLENBOROUGH REALTY TRUST INC 4 M-Exempt --D 9500.0000 55000.0000 4 0000929454 Common Stock
D 2006-11-28   GLENBOROUGH REALTY TRUST INC 4 M-Exempt --D 11000.0000 0.0000 7 0000929454 Stock Options (right to buy)
D 2006-11-28   GLENBOROUGH REALTY TRUST INC 4 M-Exempt --D 9500.0000 0.0000 10 0000929454 Stock Options (right to buy)
A 2006-11-28   GLENBOROUGH REALTY TRUST INC 4 M-Exempt --D 11000.0000 35500.0000 2 0000929454 Common Stock
D 2006-11-28   GLENBOROUGH REALTY TRUST INC 4 G-Gift --D 10500.0000 44500.0000 5 0000929454 Common Stock
D 2006-11-28   GLENBOROUGH REALTY TRUST INC 4 M-Exempt --D 11000.0000 0.0000 8 0000929454 Stock Options (right to buy)
A 2006-06-01   CB RICHARD ELLIS GROUP INC 4 A-Award --D 1363.0000 10105.0000 1 0001138118 Class A Common Stock
A 2006-06-01   CB RICHARD ELLIS GROUP INC 4 A-Award --D 1948.0000 1948.0000 2 0001138118 Stock Option (Right to Buy)
A 2006-01-31   GLENBOROUGH REALTY TRUST INC 4 A-Award --D 2000.0000 13500.0000 1 0000929454 Common Stock
A 2005-09-30   URS CORP /NEW/ 4 A-Award --D 216.0000 111627.0000 1 0000102379 Common Stock
A 2005-09-30   URS CORP /NEW/ 4 A-Award --D 216.0000 2375.0000 2 0000102379 Phantom Stock
A 2005-07-01   URS CORP /NEW/ 4/A A-Award --D 234.0000 111411.0000 2 0000102379 Common Stock
A 2005-07-01   URS CORP /NEW/ 4/A A-Award --D 234.0000 2159.0000 10 0000102379 Phantom Stock
A 2005-06-30   URS CORP /NEW/ 4 A-Award --D 234.0000 111411.0000 2 0000102379 Common Stock
A 2005-06-30   URS CORP /NEW/ 4 A-Award --D 234.0000 2159.0000 10 0000102379 Phantom Stock
A 2005-06-02   CB RICHARD ELLIS GROUP INC 4 A-Award --D 1306.0000 1306.0000 6 0001138118 Stock Option (Right to Buy)
A 2005-06-02   CB RICHARD ELLIS GROUP INC 4 A-Award --D 914.0000 2914.0000 5 0001138118 Class A Common Stock
D 2005-05-25   CB RICHARD ELLIS GROUP INC 4/A S-Sale --I 21917.0000 180890.0000 3 0001138118 Class A Common Stock
D 2005-05-25   CB RICHARD ELLIS GROUP INC 4 S-Sale --I 21917.0000 180890.0000 3 0001138118 Class A Common Stock
D 2005-05-25   CB RICHARD ELLIS GROUP INC 4/A S-Sale --I 915097.0000 7552644.0000 1 0001138118 Class A Common Stock
D 2005-05-25   CB RICHARD ELLIS GROUP INC 4 S-Sale --I 915097.0000 7552644.0000 1 0001138118 Class A Common Stock
D 2005-05-25   CB RICHARD ELLIS GROUP INC 4/A S-Sale --I 1062986.0000 8773244.0000 2 0001138118 Class A Common Stock
D 2005-05-25   CB RICHARD ELLIS GROUP INC 4 S-Sale --I 1062986.0000 8773244.0000 2 0001138118 Class A Common Stock
A 2005-01-03   GLENBOROUGH REALTY TRUST INC 4 A-Award --D 2000.0000 11500.0000 1 0000929454 Common Stock
D 2004-12-13   CB RICHARD ELLIS GROUP INC 4 S-Sale --I 5602776.0000 9836230.0000 2 0001138118 Class A Common Stock
D 2004-12-13   CB RICHARD ELLIS GROUP INC 4 S-Sale --I 115521.0000 202807.0000 3 0001138118 Class A Common Stock
D 2004-12-13   CB RICHARD ELLIS GROUP INC 4 S-Sale --I 4823277.0000 8467741.0000 1 0001138118 Class A Common Stock
A 2004-12-01   GLENBOROUGH REALTY TRUST INC 4 A-Award --D 2000.0000 9500.0000 1 0000929454 Common Stock
D 2004-07-14   CB RICHARD ELLIS GROUP INC 4 S-Sale --I 86091.0000 15439006.0000 2 0001138118 Class A Common Stock
D 2004-07-14   CB RICHARD ELLIS GROUP INC 4 S-Sale --I 1775.0000 318328.0000 3 0001138118 Class A Common Stock
D 2004-07-14   CB RICHARD ELLIS GROUP INC 4 S-Sale --I 74114.0000 13291018.0000 1 0001138118 Class A Common Stock
D 2004-06-15   CB RICHARD ELLIS GROUP INC 4 C-Conversion --I 21634935.0000 0.0000 9 0001138118 Class B Common Stock
A 2004-06-15   CB RICHARD ELLIS GROUP INC 4 C-Conversion --I 18624925.0000 18624925.0000 1 0001138118 Class A Common Stock
D 2004-06-15   CB RICHARD ELLIS GROUP INC 4 S-Sale --I 6109838.0000 15525097.0000 4 0001138118 Class A Common Stock
D 2004-06-15   CB RICHARD ELLIS GROUP INC 4 C-Conversion --I 446078.0000 0.0000 10 0001138118 Class B Common Stock
D 2004-06-15   CB RICHARD ELLIS GROUP INC 4 S-Sale --I 5259793.0000 13365132.0000 2 0001138118 Class A Common Stock
A 2004-06-15   CB RICHARD ELLIS GROUP INC 4 C-Conversion --I 446078.0000 446078.0000 5 0001138118 Class A Common Stock
D 2004-06-15   CB RICHARD ELLIS GROUP INC 4 C-Conversion --I 18624925.0000 0.0000 8 0001138118 Class B Common Stock
A 2004-06-15   CB RICHARD ELLIS GROUP INC 4 C-Conversion --I 21634935.0000 21634935.0000 3 0001138118 Class A Common Stock
D 2004-06-15   CB RICHARD ELLIS GROUP INC 4 S-Sale --I 125975.0000 320103.0000 6 0001138118 Class A Common Stock
A 2004-06-10   CB RICHARD ELLIS GROUP INC 4 A-Award --D 2000.0000 2000.0000 1 0001138118 Class A Common Stock
A 2004-06-10   CB RICHARD ELLIS GROUP INC 4 A-Award --D 2949.0000 2949.0000 2 0001138118 Stock Option (right to buy)
D 2003-12-01   NORTHWEST AIRLINES CORP 4 G-Gift --D 7850.0000 216423.0000 1 0001058033 Common Stock
D 2003-10-22   NORTHWEST AIRLINES CORP 4 G-Gift --D 56104.0000 224273.0000 1 0001058033 Common Stock
D 2003-10-20   NORTHWEST AIRLINES CORP 4 G-Gift --D 1786.0000 280377.0000 1 0001058033 Common Stock
D 2003-10-17   NORTHWEST AIRLINES CORP 4 G-Gift --D 31786.0000 282163.0000 1 0001058033 Common Stock
D 2003-09-16   NORTHWEST AIRLINES CORP 4/A G-Gift --D 2325.0000 313949.0000 1 0001058033 Common Stock
D 2003-07-14   NORTHWEST AIRLINES CORP 4/A G-Gift --D 22222.0000 342578.0000 1 0001058033 Common Stock
- -   CB RICHARD ELLIS GROUP INC 4 - --D 2000.0000 5 0001138118 Class A Common Stock

http://www.sec.gov/cgi-bin/own-disp


Modified: 04/22/2016